createdAt,value
2023-04-22T00:04:51.311Z,100813.16
2023-04-22T00:09:58.212Z,100812.44
2023-04-22T00:15:06.963Z,100815.03
2023-04-22T00:20:15.555Z,100810.66
2023-04-22T00:25:21.856Z,100804.66
2023-04-22T00:30:30.178Z,100809.94
2023-04-22T00:35:37.071Z,100807.47
2023-04-22T00:40:43.492Z,100806.69
2023-04-22T00:45:51.796Z,100796.28
2023-04-22T00:50:57.984Z,100802.31
2023-04-22T00:56:04.449Z,100801.47
2023-04-22T01:01:13.098Z,100796.28
2023-04-22T01:06:21.898Z,100786.78
2023-04-22T01:11:28.201Z,100794.53
2023-04-22T01:16:39.320Z,100792.78
2023-04-22T01:21:46.663Z,100791.09
2023-04-22T01:26:54.499Z,100790.22
2023-04-22T01:32:01.295Z,100800.59
2023-04-22T01:37:11.267Z,100803.22
2023-04-22T01:42:20.742Z,100792.91
2023-04-22T01:47:27.885Z,100794.66
2023-04-22T01:52:34.286Z,100792.03
2023-04-22T01:57:42.008Z,100779.97
2023-04-22T02:02:48.500Z,100786.03
2023-04-22T02:07:55.595Z,100786.88
2023-04-22T02:13:03.706Z,100777.38
2023-04-22T02:18:10.480Z,100779.97
2023-04-22T02:23:16.851Z,100773.97
2023-04-22T02:28:24.599Z,100773.09
2023-04-22T02:33:30.899Z,100765.34
2023-04-22T02:38:37.430Z,100767.94
2023-04-22T02:43:47.530Z,100769.66
2023-04-22T02:48:54.381Z,100772.22
2023-04-22T02:54:01.253Z,100764.47
2023-04-22T02:59:09.441Z,100771.38
2023-04-22T03:04:16.543Z,100767.06
2023-04-22T03:09:26.159Z,100774.84
2023-04-22T03:14:33.917Z,100777.41
2023-04-22T03:19:40.487Z,100772.22
2023-04-22T03:24:47.933Z,100778.22
2023-04-22T03:29:56.368Z,100785.13
2023-04-22T03:35:03.924Z,100785.16
2023-04-22T03:40:13.701Z,100792.06
2023-04-22T03:45:22.642Z,100798.91
2023-04-22T03:50:51.937Z,100798.03
2023-04-22T03:55:58.692Z,100802.34
2023-04-22T04:01:07.609Z,100808.38
2023-04-22T04:06:14.274Z,100808.22
2023-04-22T04:11:21.584Z,100803.13
2023-04-22T04:16:31.121Z,100809.13
2023-04-22T04:21:44.531Z,100814.34
2023-04-22T04:26:52.285Z,100817.03
2023-04-22T04:32:05.226Z,100819.66
2023-04-22T04:37:12.013Z,100811.06
2023-04-22T04:42:33.843Z,100827.44
2023-04-22T04:47:46.563Z,100823.06
2023-04-22T04:52:59.685Z,100816.88
2023-04-22T04:58:12.847Z,100818.56
2023-04-22T05:03:21.092Z,100822.84
2023-04-22T05:08:28.585Z,100819.31
2023-04-22T05:13:41.930Z,100810.59
2023-04-22T05:18:54.942Z,100813.03
2023-04-22T05:24:01.629Z,100810.22
2023-04-22T05:29:09.020Z,100814.31
2023-04-22T05:34:17.426Z,100814.00
2023-04-22T05:39:24.149Z,100811.13
2023-04-22T05:44:31.109Z,100810.91
2023-04-22T05:49:39.722Z,100817.72
2023-04-22T05:54:54.443Z,100806.25
2023-04-22T06:00:02.063Z,100811.22
2023-04-22T06:05:13.657Z,100803.25
2023-04-22T06:10:20.330Z,100802.19
2023-04-22T06:15:28.771Z,100804.63
2023-04-22T06:20:38.536Z,100805.28
2023-04-22T06:25:44.924Z,100796.16
2023-04-22T06:30:51.229Z,100799.50
2023-04-22T06:35:59.605Z,100789.84
2023-04-22T06:41:09.184Z,100794.06
2023-04-22T06:46:19.102Z,100793.38
2023-04-22T06:51:33.584Z,100781.66
2023-04-22T06:56:40.885Z,100796.63
2023-04-22T07:01:47.492Z,100791.97
2023-04-22T07:06:56.469Z,100794.00
2023-04-22T07:12:03.213Z,100790.78
2023-04-22T07:17:10.332Z,100787.91
2023-04-22T07:22:18.181Z,100792.53
2023-04-22T07:27:24.796Z,100786.81
2023-04-22T07:32:33.745Z,100788.47
2023-04-22T07:37:41.782Z,100781.63
2023-04-22T07:42:48.625Z,100781.53
2023-04-22T07:47:55.448Z,100787.44
2023-04-22T07:53:03.323Z,100777.59
2023-04-22T07:58:09.740Z,100775.53
2023-04-22T08:03:16.622Z,100786.59
2023-04-22T08:08:25.047Z,100785.31
2023-04-22T08:13:31.547Z,100776.59
2023-04-22T08:18:38.281Z,100774.34
2023-04-22T08:23:46.590Z,100774.91
2023-04-22T08:28:52.994Z,100779.91
2023-04-22T08:34:00.004Z,100779.69
2023-04-22T08:39:08.005Z,100778.28
2023-04-22T08:44:15.866Z,100774.88
2023-04-22T08:49:23.002Z,100772.41
2023-04-22T08:54:30.919Z,100766.97
2023-04-22T08:59:39.287Z,100766.47
2023-04-22T09:04:48.035Z,100774.69
2023-04-22T09:09:57.030Z,100769.47
2023-04-22T09:15:04.444Z,100764.81
2023-04-22T09:20:12.628Z,100753.28
2023-04-22T09:25:22.628Z,100758.25
2023-04-22T09:30:31.405Z,100756.50
2023-04-22T09:35:40.193Z,100745.13
2023-04-22T09:40:49.132Z,100738.72
2023-04-22T09:45:55.911Z,100731.13
2023-04-22T09:51:02.636Z,100729.63
2023-04-22T09:56:10.753Z,100718.19
2023-04-22T10:01:17.238Z,100727.31
2023-04-22T10:06:24.058Z,100728.59
2023-04-22T10:11:32.514Z,100716.78
2023-04-22T10:16:41.405Z,100711.72
2023-04-22T10:21:48.968Z,100709.59
2023-04-22T10:27:00.096Z,100705.66
2023-04-22T10:32:25.211Z,100703.16
2023-04-22T10:37:33.685Z,100704.03
2023-04-22T10:42:44.886Z,100699.47
2023-04-22T10:47:51.506Z,100700.00
2023-04-22T10:53:00.398Z,100684.63
2023-04-22T10:58:22.304Z,100689.63
2023-04-22T11:03:31.423Z,100684.97
2023-04-22T11:08:38.173Z,100683.63
2023-04-22T11:13:47.862Z,100681.69
2023-04-22T11:18:55.037Z,100679.13
2023-04-22T11:24:06.497Z,100672.41
2023-04-22T11:29:14.262Z,100667.06
2023-04-22T11:34:21.016Z,100657.50
2023-04-22T11:39:44.339Z,100655.91
2023-04-22T11:45:04.249Z,100656.03
2023-04-22T11:50:14.369Z,100649.34
2023-04-22T11:55:23.414Z,100657.31
2023-04-22T12:00:34.739Z,100652.28
2023-04-22T12:05:43.301Z,100640.69
2023-04-22T12:10:56.744Z,100634.81
2023-04-22T12:16:08.875Z,100626.84
2023-04-22T12:21:17.102Z,100628.03
2023-04-22T12:26:27.748Z,100631.28
2023-04-22T12:31:36.231Z,100630.34
2023-04-22T12:36:42.840Z,100622.22
2023-04-22T12:41:51.338Z,100625.03
2023-04-22T12:46:59.300Z,100609.44
2023-04-22T12:52:05.716Z,100612.06
2023-04-22T12:57:12.311Z,100603.00
2023-04-22T13:02:20.323Z,100602.91
2023-04-22T13:07:26.988Z,100600.72
2023-04-22T13:12:33.544Z,100593.28
2023-04-22T13:17:41.964Z,100593.50
2023-04-22T13:22:48.836Z,100579.72
2023-04-22T13:27:55.421Z,100581.59
2023-04-22T13:33:03.588Z,100577.81
2023-04-22T13:38:10.269Z,100566.91
2023-04-22T13:43:16.902Z,100564.53
2023-04-22T13:48:24.857Z,100562.94
2023-04-22T13:53:33.467Z,100567.97
2023-04-22T13:58:42.799Z,100573.25
2023-04-22T14:03:51.345Z,100555.66
2023-04-22T14:08:58.071Z,100566.25
2023-04-22T14:14:04.669Z,100558.41
2023-04-22T14:19:12.934Z,100561.16
2023-04-22T14:24:20.100Z,100563.59
2023-04-22T14:29:26.926Z,100555.50
2023-04-22T14:34:34.932Z,100545.19
2023-04-22T14:39:41.812Z,100554.66
2023-04-22T14:44:48.576Z,100551.53
2023-04-22T14:49:56.796Z,100547.09
2023-04-22T14:55:12.179Z,100545.97
2023-04-22T15:00:27.627Z,100543.41
2023-04-22T15:05:37.132Z,100536.59
2023-04-22T15:10:43.772Z,100533.63
2023-04-22T15:15:50.395Z,100535.44
2023-04-22T15:20:58.678Z,100526.53
2023-04-22T15:26:05.302Z,100531.00
2023-04-22T15:31:11.972Z,100529.47
2023-04-22T15:36:22.143Z,100531.53
2023-04-22T15:41:29.277Z,100524.06
2023-04-22T15:46:35.914Z,100523.63
2023-04-22T15:51:43.935Z,100517.00
2023-04-22T15:56:50.745Z,100522.59
2023-04-22T16:01:57.810Z,100519.47
2023-04-22T16:07:06.507Z,100516.34
2023-04-22T16:12:13.948Z,100507.06
2023-04-22T16:17:21.146Z,100517.00
2023-04-22T16:22:29.384Z,100510.28
2023-04-22T16:27:35.949Z,100511.91
2023-04-22T16:32:42.740Z,100510.81
2023-04-22T16:37:51.402Z,100506.88
2023-04-22T16:43:03.250Z,100503.69
2023-04-22T16:48:09.681Z,100505.22
2023-04-22T16:53:17.663Z,100511.09
2023-04-22T16:58:24.365Z,100510.84
2023-04-22T17:03:31.155Z,100505.38
2023-04-22T17:08:39.512Z,100506.19
2023-04-22T17:13:46.153Z,100501.63
2023-04-22T17:18:52.707Z,100506.66
2023-04-22T17:24:02.512Z,100505.53
2023-04-22T17:29:08.998Z,100512.28
2023-04-22T17:34:15.519Z,100505.00
2023-04-22T17:39:23.491Z,100508.31
2023-04-22T17:44:30.001Z,100520.44
2023-04-22T17:49:36.498Z,100511.50
2023-04-22T17:54:45.067Z,100514.72
2023-04-22T17:59:51.441Z,100515.28
2023-04-22T18:04:57.960Z,100511.50
2023-04-22T18:10:06.743Z,100522.72
2023-04-22T18:15:13.404Z,100527.84
2023-04-22T18:20:20.992Z,100520.75
2023-04-22T18:25:30.147Z,100532.78
2023-04-22T18:30:36.937Z,100534.31
2023-04-22T18:35:44.586Z,100536.63
2023-04-22T18:40:53.822Z,100541.63
2023-04-22T18:46:00.779Z,100543.09
2023-04-22T18:51:08.149Z,100541.94
2023-04-22T18:56:16.253Z,100539.84
2023-04-22T19:01:22.878Z,100545.66
2023-04-22T19:06:30.477Z,100542.31
2023-04-22T19:11:39.363Z,100549.28
2023-04-22T19:16:47.377Z,100545.75
2023-04-22T19:21:54.930Z,100545.34
2023-04-22T19:27:07.215Z,100532.72
2023-04-22T19:32:14.413Z,100540.16
2023-04-22T19:37:24.144Z,100540.06
2023-04-22T19:42:33.772Z,100536.66
2023-04-22T19:47:41.831Z,100526.09
2023-04-22T19:52:52.768Z,100531.22
2023-04-22T19:58:01.827Z,100535.38
2023-04-22T20:03:10.438Z,100523.31
2023-04-22T20:08:20.092Z,100529.53
2023-04-22T20:13:30.108Z,100525.47
2023-04-22T20:18:38.287Z,100525.25
2023-04-22T20:23:46.544Z,100520.69
2023-04-22T20:28:55.145Z,100523.00
2023-04-22T20:34:03.220Z,100528.41
2023-04-22T20:39:14.534Z,100530.34
2023-04-22T20:44:23.047Z,100526.22
2023-04-22T20:49:30.534Z,100526.47
2023-04-22T20:54:37.860Z,100525.06
2023-04-22T20:59:46.197Z,100522.63
2023-04-22T21:04:54.013Z,100524.34
2023-04-22T21:10:01.171Z,100522.09
2023-04-22T21:15:12.142Z,100519.47
2023-04-22T21:20:19.852Z,100518.81
2023-04-22T21:25:30.352Z,100523.66
2023-04-22T21:30:39.490Z,100515.06
2023-04-22T21:35:46.350Z,100515.94
2023-04-22T21:40:52.703Z,100513.72
2023-04-22T21:46:01.331Z,100511.13
2023-04-22T21:51:08.328Z,100513.97
2023-04-22T21:56:17.584Z,100516.53
2023-04-22T22:01:25.945Z,100516.59
2023-04-22T22:06:33.683Z,100517.44
2023-04-22T22:11:40.620Z,100528.84
2023-04-22T22:16:50.151Z,100525.75
2023-04-22T22:21:57.194Z,100520.84
2023-04-22T22:27:05.508Z,100523.44
2023-04-22T22:32:13.720Z,100526.16
2023-04-22T22:37:20.762Z,100523.91
2023-04-22T22:42:27.756Z,100524.09
2023-04-22T22:47:36.202Z,100523.41
2023-04-22T22:52:43.117Z,100532.94
2023-04-22T22:57:49.495Z,100520.97
2023-04-22T23:02:58.248Z,100527.00
2023-04-22T23:08:05.393Z,100523.72
2023-04-22T23:13:12.477Z,100519.56
2023-04-22T23:18:21.235Z,100516.91
2023-04-22T23:23:29.763Z,100513.59
2023-04-22T23:28:37.460Z,100520.59
2023-04-22T23:33:46.116Z,100518.81
2023-04-22T23:38:52.494Z,100515.50
2023-04-22T23:43:59.202Z,100510.34
2023-04-22T23:49:07.622Z,100514.81
2023-04-22T23:54:14.058Z,100512.22
2023-04-22T23:59:21.508Z,100509.69
